sensor_id;sensor_type;location;lat;lon;timestamp;pressure;altitude;pressure_sealevel;temperature;humidity
50105;BME280;47690;39.202;-77.198;2023-03-17T00:00:55;99858.69;;;38.49;3.08
50105;BME280;47690;39.202;-77.198;2023-03-17T00:03:26;99863.38;;;38.29;2.79
50105;BME280;47690;39.202;-77.198;2023-03-17T00:05:59;99863.69;;;38.07;2.97
50105;BME280;47690;39.202;-77.198;2023-03-17T00:08:33;99863.72;;;38.00;3.22
50105;BME280;47690;39.202;-77.198;2023-03-17T00:11:10;99863.13;;;37.91;3.00
50105;BME280;47690;39.202;-77.198;2023-03-17T00:13:41;99867.50;;;37.79;3.04
50105;BME280;47690;39.202;-77.198;2023-03-17T00:16:16;99865.06;;;37.70;3.12
50105;BME280;47690;39.202;-77.198;2023-03-17T00:18:47;99871.91;;;37.53;3.50
50105;BME280;47690;39.202;-77.198;2023-03-17T00:21:23;99870.56;;;37.16;3.38
50105;BME280;47690;39.202;-77.198;2023-03-17T00:23:53;99870.56;;;37.10;3.45
50105;BME280;47690;39.202;-77.198;2023-03-17T00:26:23;99872.81;;;37.13;3.40
50105;BME280;47690;39.202;-77.198;2023-03-17T00:28:52;99870.94;;;37.00;3.66
50105;BME280;47690;39.202;-77.198;2023-03-17T00:31:24;99869.50;;;36.77;3.63
50105;BME280;47690;39.202;-77.198;2023-03-17T00:33:57;99862.06;;;38.06;3.10
50105;BME280;47690;39.202;-77.198;2023-03-17T00:36:32;99868.47;;;37.18;3.09
50105;BME280;47690;39.202;-77.198;2023-03-17T00:39:02;99860.19;;;36.80;3.63
50105;BME280;47690;39.202;-77.198;2023-03-17T00:41:33;99865.97;;;36.63;3.33
50105;BME280;47690;39.202;-77.198;2023-03-17T00:44:02;99874.38;;;36.46;3.67
50105;BME280;47690;39.202;-77.198;2023-03-17T00:46:32;99877.88;;;36.33;3.91
50105;BME280;47690;39.202;-77.198;2023-03-17T00:51:39;99870.59;;;36.20;4.01
50105;BME280;47690;39.202;-77.198;2023-03-17T00:54:10;99871.38;;;36.07;4.06
50105;BME280;47690;39.202;-77.198;2023-03-17T00:56:40;99860.41;;;35.95;4.22
50105;BME280;47690;39.202;-77.198;2023-03-17T00:59:25;99864.13;;;35.94;4.29
50105;BME280;47690;39.202;-77.198;2023-03-17T01:01:59;99861.81;;;35.85;3.97
50105;BME280;47690;39.202;-77.198;2023-03-17T01:04:32;99862.53;;;35.65;4.33
50105;BME280;47690;39.202;-77.198;2023-03-17T01:07:01;99858.00;;;35.59;4.11
50105;BME280;47690;39.202;-77.198;2023-03-17T01:09:30;99861.19;;;35.47;4.21
50105;BME280;47690;39.202;-77.198;2023-03-17T01:12:01;99859.03;;;35.36;4.26
50105;BME280;47690;39.202;-77.198;2023-03-17T01:14:30;99859.44;;;35.33;4.19
50105;BME280;47690;39.202;-77.198;2023-03-17T01:17:00;99854.53;;;35.36;4.28
50105;BME280;47690;39.202;-77.198;2023-03-17T01:19:29;99842.91;;;35.22;4.34
50105;BME280;47690;39.202;-77.198;2023-03-17T01:21:59;99850.97;;;35.29;4.26
50105;BME280;47690;39.202;-77.198;2023-03-17T01:24:29;99847.28;;;35.30;4.40
50105;BME280;47690;39.202;-77.198;2023-03-17T01:26:59;99850.22;;;36.26;4.08
50105;BME280;47690;39.202;-77.198;2023-03-17T01:29:29;99841.09;;;35.58;4.25
50105;BME280;47690;39.202;-77.198;2023-03-17T01:31:59;99836.69;;;35.15;4.49
50105;BME280;47690;39.202;-77.198;2023-03-17T01:34:29;99840.06;;;35.02;4.60
50105;BME280;47690;39.202;-77.198;2023-03-17T01:37:00;99837.75;;;34.92;4.46
50105;BME280;47690;39.202;-77.198;2023-03-17T01:39:29;99838.00;;;34.76;4.75
50105;BME280;47690;39.202;-77.198;2023-03-17T01:41:59;99825.94;;;34.58;5.02
50105;BME280;47690;39.202;-77.198;2023-03-17T01:44:30;99822.50;;;34.49;4.96
50105;BME280;47690;39.202;-77.198;2023-03-17T01:46:59;99820.81;;;34.41;4.80
50105;BME280;47690;39.202;-77.198;2023-03-17T01:49:33;99823.66;;;34.40;5.33
50105;BME280;47690;39.202;-77.198;2023-03-17T01:52:11;99822.81;;;34.39;5.08
50105;BME280;47690;39.202;-77.198;2023-03-17T01:54:52;99827.94;;;34.34;5.00
50105;BME280;47690;39.202;-77.198;2023-03-17T01:57:32;99834.94;;;34.35;5.33
50105;BME280;47690;39.202;-77.198;2023-03-17T02:00:11;99832.44;;;34.33;5.15
50105;BME280;47690;39.202;-77.198;2023-03-17T02:02:43;99828.06;;;34.26;4.91
50105;BME280;47690;39.202;-77.198;2023-03-17T02:05:17;99837.72;;;34.27;5.35
50105;BME280;47690;39.202;-77.198;2023-03-17T02:07:50;99823.97;;;34.30;4.85
50105;BME280;47690;39.202;-77.198;2023-03-17T02:10:26;99839.75;;;34.25;5.03
50105;BME280;47690;39.202;-77.198;2023-03-17T02:12:59;99833.59;;;34.24;5.15
50105;BME280;47690;39.202;-77.198;2023-03-17T02:15:40;99837.03;;;34.40;5.43
50105;BME280;47690;39.202;-77.198;2023-03-17T02:18:10;99828.44;;;34.23;5.22
50105;BME280;47690;39.202;-77.198;2023-03-17T02:23:18;99823.00;;;35.32;5.08
50105;BME280;47690;39.202;-77.198;2023-03-17T02:25:50;99818.72;;;34.58;4.74
50105;BME280;47690;39.202;-77.198;2023-03-17T02:28:22;99821.75;;;34.33;5.14
50105;BME280;47690;39.202;-77.198;2023-03-17T02:30:53;99817.72;;;34.23;5.11
50105;BME280;47690;39.202;-77.198;2023-03-17T02:33:23;99816.38;;;34.12;5.38
50105;BME280;47690;39.202;-77.198;2023-03-17T02:35:55;99815.75;;;34.10;5.09
50105;BME280;47690;39.202;-77.198;2023-03-17T02:38:25;99807.91;;;34.08;5.15
50105;BME280;47690;39.202;-77.198;2023-03-17T02:40:55;99806.28;;;34.29;5.09
50105;BME280;47690;39.202;-77.198;2023-03-17T02:43:25;99791.53;;;34.33;5.50
50105;BME280;47690;39.202;-77.198;2023-03-17T02:45:55;99796.66;;;34.35;5.13
50105;BME280;47690;39.202;-77.198;2023-03-17T02:48:25;99795.47;;;34.37;5.24
50105;BME280;47690;39.202;-77.198;2023-03-17T02:50:55;99790.38;;;34.42;4.93
50105;BME280;47690;39.202;-77.198;2023-03-17T02:53:25;99784.78;;;34.37;5.49
50105;BME280;47690;39.202;-77.198;2023-03-17T02:55:55;99785.63;;;34.38;5.15
50105;BME280;47690;39.202;-77.198;2023-03-17T02:58:25;99779.81;;;34.34;5.16
50105;BME280;47690;39.202;-77.198;2023-03-17T03:00:55;99778.81;;;34.35;5.28
50105;BME280;47690;39.202;-77.198;2023-03-17T03:03:26;99778.63;;;34.37;5.21
50105;BME280;47690;39.202;-77.198;2023-03-17T03:05:55;99769.75;;;34.36;5.50
50105;BME280;47690;39.202;-77.198;2023-03-17T03:08:27;99766.47;;;34.34;5.37
50105;BME280;47690;39.202;-77.198;2023-03-17T03:10:57;99765.81;;;34.32;5.31
50105;BME280;47690;39.202;-77.198;2023-03-17T03:13:28;99761.94;;;34.35;5.28
50105;BME280;47690;39.202;-77.198;2023-03-17T03:15:57;99768.09;;;34.35;5.46
50105;BME280;47690;39.202;-77.198;2023-03-17T03:18:27;99760.34;;;34.40;5.24
50105;BME280;47690;39.202;-77.198;2023-03-17T03:21:00;99762.19;;;34.40;5.35
50105;BME280;47690;39.202;-77.198;2023-03-17T03:23:31;99753.75;;;34.43;5.36
50105;BME280;47690;39.202;-77.198;2023-03-17T03:26:01;99759.38;;;34.48;5.29
50105;BME280;47690;39.202;-77.198;2023-03-17T03:28:31;99755.50;;;34.51;5.43
50105;BME280;47690;39.202;-77.198;2023-03-17T03:31:02;99756.50;;;34.50;5.66
50105;BME280;47690;39.202;-77.198;2023-03-17T03:33:31;99752.41;;;34.54;5.30
50105;BME280;47690;39.202;-77.198;2023-03-17T03:36:01;99751.97;;;34.50;5.42
50105;BME280;47690;39.202;-77.198;2023-03-17T03:38:32;99748.56;;;34.35;5.60
50105;BME280;47690;39.202;-77.198;2023-03-17T03:41:00;99751.75;;;34.23;5.77
50105;BME280;47690;39.202;-77.198;2023-03-17T03:43:31;99737.38;;;34.24;5.78
50105;BME280;47690;39.202;-77.198;2023-03-17T03:46:00;99740.19;;;34.16;5.64
50105;BME280;47690;39.202;-77.198;2023-03-17T03:48:30;99733.69;;;34.25;5.75
50105;BME280;47690;39.202;-77.198;2023-03-17T03:51:00;99730.38;;;34.23;5.72
50105;BME280;47690;39.202;-77.198;2023-03-17T03:53:31;99720.88;;;33.99;5.59
50105;BME280;47690;39.202;-77.198;2023-03-17T03:56:00;99719.34;;;33.89;5.67
50105;BME280;47690;39.202;-77.198;2023-03-17T03:58:32;99715.44;;;33.92;5.91
50105;BME280;47690;39.202;-77.198;2023-03-17T04:01:05;99707.88;;;33.96;5.98
50105;BME280;47690;39.202;-77.198;2023-03-17T04:03:36;99707.41;;;34.07;6.03
50105;BME280;47690;39.202;-77.198;2023-03-17T04:06:05;99700.78;;;34.03;5.99
50105;BME280;47690;39.202;-77.198;2023-03-17T04:08:34;99700.53;;;33.98;6.09
50105;BME280;47690;39.202;-77.198;2023-03-17T04:11:04;99697.47;;;34.01;5.89
50105;BME280;47690;39.202;-77.198;2023-03-17T04:13:34;99698.28;;;34.01;5.90
50105;BME280;47690;39.202;-77.198;2023-03-17T04:16:03;99694.44;;;34.04;6.04
50105;BME280;47690;39.202;-77.198;2023-03-17T04:18:33;99691.97;;;34.02;5.85
50105;BME280;47690;39.202;-77.198;2023-03-17T04:21:02;99682.91;;;34.03;5.92
50105;BME280;47690;39.202;-77.198;2023-03-17T04:23:31;99678.19;;;34.05;5.89
50105;BME280;47690;39.202;-77.198;2023-03-17T04:26:00;99676.38;;;34.06;5.79
50105;BME280;47690;39.202;-77.198;2023-03-17T04:28:30;99678.88;;;34.08;6.38
50105;BME280;47690;39.202;-77.198;2023-03-17T04:30:59;99673.13;;;34.39;5.80
50105;BME280;47690;39.202;-77.198;2023-03-17T04:33:28;99673.06;;;34.26;5.85
50105;BME280;47690;39.202;-77.198;2023-03-17T04:35:59;99661.69;;;34.74;5.65
50105;BME280;47690;39.202;-77.198;2023-03-17T04:38:29;99661.38;;;34.62;5.86
50105;BME280;47690;39.202;-77.198;2023-03-17T04:40:59;99662.84;;;34.65;5.91
50105;BME280;47690;39.202;-77.198;2023-03-17T04:43:27;99656.47;;;34.66;5.85
50105;BME280;47690;39.202;-77.198;2023-03-17T04:45:59;99641.28;;;34.73;5.94
50105;BME280;47690;39.202;-77.198;2023-03-17T04:48:29;99639.78;;;34.99;5.77
50105;BME280;47690;39.202;-77.198;2023-03-17T04:50:59;99643.84;;;34.88;5.76
50105;BME280;47690;39.202;-77.198;2023-03-17T04:53:27;99643.84;;;34.88;5.84
50105;BME280;47690;39.202;-77.198;2023-03-17T04:55:58;99638.50;;;34.88;6.04
50105;BME280;47690;39.202;-77.198;2023-03-17T04:58:26;99632.53;;;34.93;5.92
50105;BME280;47690;39.202;-77.198;2023-03-17T05:00:59;99629.69;;;34.94;5.86
50105;BME280;47690;39.202;-77.198;2023-03-17T05:03:30;99623.06;;;34.90;5.77
50105;BME280;47690;39.202;-77.198;2023-03-17T05:06:02;99628.81;;;34.87;6.00
50105;BME280;47690;39.202;-77.198;2023-03-17T05:08:32;99620.38;;;34.90;5.94
50105;BME280;47690;39.202;-77.198;2023-03-17T05:11:01;99613.81;;;34.86;5.86
50105;BME280;47690;39.202;-77.198;2023-03-17T05:13:30;99608.22;;;34.87;6.14
50105;BME280;47690;39.202;-77.198;2023-03-17T05:15:59;99608.84;;;34.83;6.26
50105;BME280;47690;39.202;-77.198;2023-03-17T05:18:29;99599.41;;;34.87;6.05
50105;BME280;47690;39.202;-77.198;2023-03-17T05:20:59;99597.31;;;34.82;5.97
50105;BME280;47690;39.202;-77.198;2023-03-17T05:23:30;99594.44;;;34.84;5.92
50105;BME280;47690;39.202;-77.198;2023-03-17T05:25:59;99594.84;;;34.87;5.91
50105;BME280;47690;39.202;-77.198;2023-03-17T05:28:29;99599.41;;;34.94;5.90
50105;BME280;47690;39.202;-77.198;2023-03-17T05:30:59;99600.88;;;34.96;5.92
50105;BME280;47690;39.202;-77.198;2023-03-17T05:33:28;99595.72;;;34.95;5.80
50105;BME280;47690;39.202;-77.198;2023-03-17T05:35:57;99590.53;;;34.86;6.04
50105;BME280;47690;39.202;-77.198;2023-03-17T05:38:26;99586.44;;;34.91;5.98
50105;BME280;47690;39.202;-77.198;2023-03-17T05:40:56;99579.47;;;34.90;5.87
50105;BME280;47690;39.202;-77.198;2023-03-17T05:43:27;99563.94;;;34.71;6.11
50105;BME280;47690;39.202;-77.198;2023-03-17T05:45:57;99572.22;;;34.48;6.25
50105;BME280;47690;39.202;-77.198;2023-03-17T05:48:25;99558.03;;;35.65;5.85
50105;BME280;47690;39.202;-77.198;2023-03-17T05:50:54;99556.41;;;36.12;5.49
50105;BME280;47690;39.202;-77.198;2023-03-17T05:53:25;99557.63;;;36.16;5.63
50105;BME280;47690;39.202;-77.198;2023-03-17T05:55:54;99557.00;;;36.00;5.46
50105;BME280;47690;39.202;-77.198;2023-03-17T05:58:24;99548.94;;;36.00;5.54
50105;BME280;47690;39.202;-77.198;2023-03-17T06:00:54;99553.69;;;35.98;5.73
50105;BME280;47690;39.202;-77.198;2023-03-17T06:03:23;99548.31;;;36.05;5.70
50105;BME280;47690;39.202;-77.198;2023-03-17T06:05:53;99546.72;;;36.11;5.64
50105;BME280;47690;39.202;-77.198;2023-03-17T06:08:22;99541.34;;;36.11;5.48
50105;BME280;47690;39.202;-77.198;2023-03-17T06:10:51;99538.44;;;35.99;5.53
50105;BME280;47690;39.202;-77.198;2023-03-17T06:13:20;99533.84;;;34.56;6.31
50105;BME280;47690;39.202;-77.198;2023-03-17T06:15:49;99528.56;;;34.34;6.57
50105;BME280;47690;39.202;-77.198;2023-03-17T06:18:21;99524.00;;;34.28;6.51
50105;BME280;47690;39.202;-77.198;2023-03-17T06:20:50;99518.44;;;34.23;6.56
50105;BME280;47690;39.202;-77.198;2023-03-17T06:23:19;99516.84;;;34.70;6.40
50105;BME280;47690;39.202;-77.198;2023-03-17T06:25:49;99511.88;;;34.32;6.55
50105;BME280;47690;39.202;-77.198;2023-03-17T06:28:18;99502.91;;;34.89;6.29
50105;BME280;47690;39.202;-77.198;2023-03-17T06:30:47;99487.28;;;34.50;6.53
50105;BME280;47690;39.202;-77.198;2023-03-17T06:33:15;99487.69;;;34.40;6.60
50105;BME280;47690;39.202;-77.198;2023-03-17T06:35:45;99488.06;;;34.37;6.83
50105;BME280;47690;39.202;-77.198;2023-03-17T06:38:14;99483.56;;;34.38;6.67
50105;BME280;47690;39.202;-77.198;2023-03-17T06:40:42;99485.41;;;34.37;6.61
50105;BME280;47690;39.202;-77.198;2023-03-17T06:43:11;99480.25;;;34.36;6.60
50105;BME280;47690;39.202;-77.198;2023-03-17T06:45:41;99480.66;;;34.39;6.55
50105;BME280;47690;39.202;-77.198;2023-03-17T06:48:10;99473.50;;;34.40;6.47
50105;BME280;47690;39.202;-77.198;2023-03-17T06:50:38;99466.25;;;34.33;6.53
50105;BME280;47690;39.202;-77.198;2023-03-17T06:53:07;99462.69;;;34.55;6.45
50105;BME280;47690;39.202;-77.198;2023-03-17T06:55:36;99460.97;;;34.47;6.65
50105;BME280;47690;39.202;-77.198;2023-03-17T06:58:05;99470.41;;;34.43;6.68
50105;BME280;47690;39.202;-77.198;2023-03-17T07:00:34;99460.53;;;34.37;6.51
50105;BME280;47690;39.202;-77.198;2023-03-17T07:03:03;99472.81;;;34.31;6.83
50105;BME280;47690;39.202;-77.198;2023-03-17T07:05:33;99465.03;;;34.36;6.60
50105;BME280;47690;39.202;-77.198;2023-03-17T07:08:01;99469.97;;;34.39;6.36
50105;BME280;47690;39.202;-77.198;2023-03-17T07:10:30;99470.19;;;34.38;6.76
50105;BME280;47690;39.202;-77.198;2023-03-17T07:12:59;99472.66;;;34.39;6.76
50105;BME280;47690;39.202;-77.198;2023-03-17T07:15:30;99464.25;;;34.42;6.88
50105;BME280;47690;39.202;-77.198;2023-03-17T07:18:03;99466.09;;;34.42;6.70
50105;BME280;47690;39.202;-77.198;2023-03-17T07:20:32;99455.28;;;34.57;6.62
50105;BME280;47690;39.202;-77.198;2023-03-17T07:23:01;99453.25;;;34.66;6.62
50105;BME280;47690;39.202;-77.198;2023-03-17T07:25:30;99454.72;;;34.75;6.67
50105;BME280;47690;39.202;-77.198;2023-03-17T07:27:59;99459.28;;;34.81;6.67
50105;BME280;47690;39.202;-77.198;2023-03-17T07:30:30;99459.66;;;34.78;6.77
50105;BME280;47690;39.202;-77.198;2023-03-17T07:32:59;99455.53;;;34.76;6.81
50105;BME280;47690;39.202;-77.198;2023-03-17T07:35:29;99462.38;;;34.85;6.98
50105;BME280;47690;39.202;-77.198;2023-03-17T07:38:01;99459.47;;;34.86;6.47
50105;BME280;47690;39.202;-77.198;2023-03-17T07:40:30;99454.91;;;34.80;6.82
50105;BME280;47690;39.202;-77.198;2023-03-17T07:43:02;99448.56;;;34.88;6.71
50105;BME280;47690;39.202;-77.198;2023-03-17T07:45:32;99437.06;;;34.94;6.51
50105;BME280;47690;39.202;-77.198;2023-03-17T07:48:04;99442.41;;;34.94;6.61
50105;BME280;47690;39.202;-77.198;2023-03-17T07:50:34;99418.75;;;34.98;6.89
50105;BME280;47690;39.202;-77.198;2023-03-17T07:53:04;99411.13;;;35.01;6.69
50105;BME280;47690;39.202;-77.198;2023-03-17T07:55:33;99413.22;;;34.99;6.82
50105;BME280;47690;39.202;-77.198;2023-03-17T07:58:05;99396.94;;;35.01;6.65
50105;BME280;47690;39.202;-77.198;2023-03-17T08:00:35;99408.25;;;34.96;6.77
50105;BME280;47690;39.202;-77.198;2023-03-17T08:03:05;99406.41;;;34.97;6.82
50105;BME280;47690;39.202;-77.198;2023-03-17T08:05:38;99409.53;;;35.07;6.72
50105;BME280;47690;39.202;-77.198;2023-03-17T08:08:08;99408.47;;;35.01;6.49
50105;BME280;47690;39.202;-77.198;2023-03-17T08:10:38;99408.66;;;34.93;6.71
50105;BME280;47690;39.202;-77.198;2023-03-17T08:13:07;99395.28;;;34.93;6.50
50105;BME280;47690;39.202;-77.198;2023-03-17T08:15:37;99382.94;;;34.92;6.60
50105;BME280;47690;39.202;-77.198;2023-03-17T08:18:07;99379.22;;;35.00;6.79
50105;BME280;47690;39.202;-77.198;2023-03-17T08:20:36;99374.09;;;35.05;6.34
50105;BME280;47690;39.202;-77.198;2023-03-17T08:23:06;99381.09;;;35.06;6.50
50105;BME280;47690;39.202;-77.198;2023-03-17T08:25:35;99374.34;;;35.10;6.64
50105;BME280;47690;39.202;-77.198;2023-03-17T08:28:05;99359.91;;;35.18;6.73
50105;BME280;47690;39.202;-77.198;2023-03-17T08:30:34;99359.28;;;35.23;6.70
50105;BME280;47690;39.202;-77.198;2023-03-17T08:33:06;99356.84;;;35.21;6.67
50105;BME280;47690;39.202;-77.198;2023-03-17T08:35:39;99365.25;;;35.18;6.93
50105;BME280;47690;39.202;-77.198;2023-03-17T08:38:09;99362.56;;;35.25;6.69
50105;BME280;47690;39.202;-77.198;2023-03-17T08:40:38;99355.81;;;35.22;6.76
50105;BME280;47690;39.202;-77.198;2023-03-17T08:43:09;99359.31;;;35.16;6.79
50105;BME280;47690;39.202;-77.198;2023-03-17T08:45:38;99353.53;;;35.12;6.86
50105;BME280;47690;39.202;-77.198;2023-03-17T08:48:08;99352.47;;;35.34;6.69
50105;BME280;47690;39.202;-77.198;2023-03-17T08:50:38;99352.88;;;35.37;6.83
50105;BME280;47690;39.202;-77.198;2023-03-17T08:53:08;99355.81;;;35.22;6.62
50105;BME280;47690;39.202;-77.198;2023-03-17T08:55:37;99360.13;;;35.23;6.81
50105;BME280;47690;39.202;-77.198;2023-03-17T08:58:05;99365.88;;;35.20;6.77
50105;BME280;47690;39.202;-77.198;2023-03-17T09:00:35;99362.38;;;35.20;6.63
50105;BME280;47690;39.202;-77.198;2023-03-17T09:03:04;99359.69;;;35.13;7.14
50105;BME280;47690;39.202;-77.198;2023-03-17T09:05:33;99362.34;;;35.06;6.89
50105;BME280;47690;39.202;-77.198;2023-03-17T09:08:05;99350.47;;;35.09;6.70
50105;BME280;47690;39.202;-77.198;2023-03-17T09:10:35;99352.88;;;35.04;6.72
50105;BME280;47690;39.202;-77.198;2023-03-17T09:13:05;99343.22;;;35.03;6.68
50105;BME280;47690;39.202;-77.198;2023-03-17T09:15:36;99331.69;;;34.95;6.71
50105;BME280;47690;39.202;-77.198;2023-03-17T09:18:11;99322.66;;;35.03;6.79
50105;BME280;47690;39.202;-77.198;2023-03-17T09:20:40;99321.19;;;34.94;6.83
50105;BME280;47690;39.202;-77.198;2023-03-17T09:23:09;99309.69;;;34.93;6.99
50105;BME280;47690;39.202;-77.198;2023-03-17T09:25:39;99307.00;;;35.00;6.97
50105;BME280;47690;39.202;-77.198;2023-03-17T09:28:11;99311.34;;;34.94;6.99
50105;BME280;47690;39.202;-77.198;2023-03-17T09:30:41;99312.13;;;34.95;6.86
50105;BME280;47690;39.202;-77.198;2023-03-17T09:33:13;99308.66;;;34.94;6.84
50105;BME280;47690;39.202;-77.198;2023-03-17T09:35:42;99321.41;;;34.92;6.98
50105;BME280;47690;39.202;-77.198;2023-03-17T09:38:11;99329.03;;;34.89;6.93
50105;BME280;47690;39.202;-77.198;2023-03-17T09:40:47;99312.16;;;34.88;7.38
50105;BME280;47690;39.202;-77.198;2023-03-17T09:46:52;99300.00;;;35.06;7.25
50105;BME280;47690;39.202;-77.198;2023-03-17T09:52:17;99279.63;;;34.91;6.89
50105;BME280;47690;39.202;-77.198;2023-03-17T09:54:47;99281.09;;;34.87;7.00
50105;BME280;47690;39.202;-77.198;2023-03-17T09:57:28;99283.13;;;34.78;7.26
50105;BME280;47690;39.202;-77.198;2023-03-17T10:00:14;99270.59;;;34.72;7.41
50105;BME280;47690;39.202;-77.198;2023-03-17T10:02:44;99273.66;;;34.76;7.00
50105;BME280;47690;39.202;-77.198;2023-03-17T10:05:26;99273.47;;;34.77;7.54
50105;BME280;47690;39.202;-77.198;2023-03-17T10:14:02;99273.06;;;34.73;7.12
50105;BME280;47690;39.202;-77.198;2023-03-17T10:16:46;99276.56;;;34.74;7.69
50105;BME280;47690;39.202;-77.198;2023-03-17T10:19:27;99275.53;;;34.62;7.65
50105;BME280;47690;39.202;-77.198;2023-03-17T10:22:03;99273.44;;;34.50;7.49
50105;BME280;47690;39.202;-77.198;2023-03-17T10:24:33;99273.84;;;34.54;7.28
50105;BME280;47690;39.202;-77.198;2023-03-17T10:27:08;99273.84;;;34.47;7.22
50105;BME280;47690;39.202;-77.198;2023-03-17T10:29:38;99278.97;;;34.42;7.42
50105;BME280;47690;39.202;-77.198;2023-03-17T10:32:11;99281.03;;;34.33;7.44
50105;BME280;47690;39.202;-77.198;2023-03-17T10:34:41;99283.06;;;34.31;7.82
50105;BME280;47690;39.202;-77.198;2023-03-17T10:37:18;99284.31;;;34.35;8.01
50105;BME280;47690;39.202;-77.198;2023-03-17T10:39:52;99289.41;;;34.16;7.81
50105;BME280;47690;39.202;-77.198;2023-03-17T10:42:24;99291.69;;;34.19;7.56
50105;BME280;47690;39.202;-77.198;2023-03-17T10:44:57;99293.16;;;34.22;7.83
50105;BME280;47690;39.202;-77.198;2023-03-17T10:47:39;99297.47;;;34.23;8.04
50105;BME280;47690;39.202;-77.198;2023-03-17T10:50:21;99290.06;;;34.18;7.81
50105;BME280;47690;39.202;-77.198;2023-03-17T10:52:57;99289.84;;;34.13;7.69
50105;BME280;47690;39.202;-77.198;2023-03-17T10:55:31;99287.00;;;34.35;7.57
50105;BME280;47690;39.202;-77.198;2023-03-17T10:58:06;99289.38;;;34.03;7.91
50105;BME280;47690;39.202;-77.198;2023-03-17T11:00:37;99286.13;;;34.08;7.70
50105;BME280;47690;39.202;-77.198;2023-03-17T11:03:15;99282.44;;;34.09;8.14
50105;BME280;47690;39.202;-77.198;2023-03-17T11:06:13;99284.50;;;34.13;8.24
50105;BME280;47690;39.202;-77.198;2023-03-17T11:11:31;99292.13;;;34.23;7.94
50105;BME280;47690;39.202;-77.198;2023-03-17T11:14:14;99298.66;;;34.14;8.11
50105;BME280;47690;39.202;-77.198;2023-03-17T11:17:01;99288.84;;;34.28;8.13
50105;BME280;47690;39.202;-77.198;2023-03-17T11:19:46;99277.72;;;34.24;8.11
50105;BME280;47690;39.202;-77.198;2023-03-17T11:22:35;99270.72;;;34.16;8.29
50105;BME280;47690;39.202;-77.198;2023-03-17T11:25:15;99268.66;;;34.05;8.17
50105;BME280;47690;39.202;-77.198;2023-03-17T11:28:06;99264.88;;;33.99;8.35
50105;BME280;47690;39.202;-77.198;2023-03-17T11:31:27;99267.03;;;34.24;8.42
50105;BME280;47690;39.202;-77.198;2023-03-17T11:37:02;99270.03;;;33.94;8.46
50105;BME280;47690;39.202;-77.198;2023-03-17T11:39:48;99262.19;;;33.86;8.01
50105;BME280;47690;39.202;-77.198;2023-03-17T11:51:20;99255.22;;;33.85;8.49
50105;BME280;47690;39.202;-77.198;2023-03-17T11:56:42;99235.66;;;33.35;8.13
50105;BME280;47690;39.202;-77.198;2023-03-17T12:01:52;99220.84;;;33.33;8.79
50105;BME280;47690;39.202;-77.198;2023-03-17T12:04:35;99228.38;;;33.51;8.98
50105;BME280;47690;39.202;-77.198;2023-03-17T12:10:15;99248.25;;;33.90;8.80
50105;BME280;47690;39.202;-77.198;2023-03-17T12:13:01;99243.47;;;33.79;8.57
50105;BME280;47690;39.202;-77.198;2023-03-17T12:15:46;99243.09;;;33.96;8.25
50105;BME280;47690;39.202;-77.198;2023-03-17T12:18:24;99244.13;;;33.88;8.21
50105;BME280;47690;39.202;-77.198;2023-03-17T12:27:08;99237.63;;;34.17;8.70
50105;BME280;47690;39.202;-77.198;2023-03-17T12:35:03;99218.31;;;34.15;9.02
50105;BME280;47690;39.202;-77.198;2023-03-17T12:37:38;99196.34;;;34.27;8.28
50105;BME280;47690;39.202;-77.198;2023-03-17T12:40:13;99197.56;;;34.31;8.42
50105;BME280;47690;39.202;-77.198;2023-03-17T12:46:01;99191.00;;;34.60;8.50
50105;BME280;47690;39.202;-77.198;2023-03-17T12:53:49;99188.69;;;34.91;8.23
50105;BME280;47690;39.202;-77.198;2023-03-17T12:56:33;99195.03;;;35.17;8.04
50105;BME280;47690;39.202;-77.198;2023-03-17T12:59:05;99181.22;;;35.27;8.13
50105;BME280;47690;39.202;-77.198;2023-03-17T13:01:42;99178.47;;;35.40;8.20
50105;BME280;47690;39.202;-77.198;2023-03-17T13:07:13;99146.88;;;35.56;8.38
50105;BME280;47690;39.202;-77.198;2023-03-17T13:10:11;99141.34;;;35.90;8.64
50105;BME280;47690;39.202;-77.198;2023-03-17T13:17:49;99147.19;;;35.80;8.07
50105;BME280;47690;39.202;-77.198;2023-03-17T13:20:19;99154.94;;;35.88;8.19
50105;BME280;47690;39.202;-77.198;2023-03-17T13:34:17;99166.72;;;37.08;8.10
50105;BME280;47690;39.202;-77.198;2023-03-17T13:36:59;99179.00;;;36.78;8.08
50105;BME280;47690;39.202;-77.198;2023-03-17T13:39:38;99176.00;;;37.05;7.36
50105;BME280;47690;39.202;-77.198;2023-03-17T13:42:27;99181.09;;;37.32;7.95
50105;BME280;47690;39.202;-77.198;2023-03-17T13:47:49;99183.75;;;37.51;7.40
50105;BME280;47690;39.202;-77.198;2023-03-17T13:50:24;99186.56;;;37.25;7.86
50105;BME280;47690;39.202;-77.198;2023-03-17T13:53:03;99185.78;;;37.37;7.29
50105;BME280;47690;39.202;-77.198;2023-03-17T13:55:40;99174.72;;;37.45;7.35
50105;BME280;47690;39.202;-77.198;2023-03-17T14:00:42;99173.75;;;37.58;7.43
50105;BME280;47690;39.202;-77.198;2023-03-17T14:03:35;99160.19;;;37.95;7.23
50105;BME280;47690;39.202;-77.198;2023-03-17T14:06:09;99159.88;;;38.04;7.18
50105;BME280;47690;39.202;-77.198;2023-03-17T14:08:53;99154.66;;;38.21;7.00
50105;BME280;47690;39.202;-77.198;2023-03-17T14:17:07;99127.84;;;39.27;6.61
50105;BME280;47690;39.202;-77.198;2023-03-17T14:19:38;99116.84;;;39.28;6.77
50105;BME280;47690;39.202;-77.198;2023-03-17T14:22:22;99103.75;;;39.66;6.42
50105;BME280;47690;39.202;-77.198;2023-03-17T14:24:59;99108.00;;;39.45;6.25
50105;BME280;47690;39.202;-77.198;2023-03-17T14:27:31;99107.75;;;39.46;6.38
50105;BME280;47690;39.202;-77.198;2023-03-17T14:30:17;99101.41;;;40.21;6.00
50105;BME280;47690;39.202;-77.198;2023-03-17T14:35:33;99091.22;;;40.85;5.72
50105;BME280;47690;39.202;-77.198;2023-03-17T14:38:16;99080.25;;;40.75;5.38
50105;BME280;47690;39.202;-77.198;2023-03-17T14:40:46;99066.91;;;40.63;6.17
50105;BME280;47690;39.202;-77.198;2023-03-17T14:43:16;99062.47;;;39.95;6.14
50105;BME280;47690;39.202;-77.198;2023-03-17T14:48:24;99053.47;;;40.68;5.76
50105;BME280;47690;39.202;-77.198;2023-03-17T14:51:03;99039.69;;;40.42;5.96
50105;BME280;47690;39.202;-77.198;2023-03-17T14:53:39;99045.66;;;40.27;6.23